sensor_id;sensor_type;location;lat;lon;timestamp;temperature;humidity
21039;DHT22;10678;51.002;4.786;2024-03-17T00:01:02;8.90;99.90
21039;DHT22;10678;51.002;4.786;2024-03-17T00:03:29;8.90;99.90
21039;DHT22;10678;51.002;4.786;2024-03-17T00:05:59;8.90;99.90
21039;DHT22;10678;51.002;4.786;2024-03-17T00:08:26;8.90;99.90
21039;DHT22;10678;51.002;4.786;2024-03-17T00:10:53;8.80;99.90
21039;DHT22;10678;51.002;4.786;2024-03-17T00:13:19;8.80;99.90
21039;DHT22;10678;51.002;4.786;2024-03-17T00:15:44;8.70;99.90
21039;DHT22;10678;51.002;4.786;2024-03-17T00:18:10;8.70;99.90
21039;DHT22;10678;51.002;4.786;2024-03-17T00:20:39;8.70;99.90
21039;DHT22;10678;51.002;4.786;2024-03-17T00:23:04;8.70;99.90
21039;DHT22;10678;51.002;4.786;2024-03-17T00:25:35;8.80;99.90
21039;DHT22;10678;51.002;4.786;2024-03-17T00:28:01;8.80;99.90
21039;DHT22;10678;51.002;4.786;2024-03-17T00:30:27;8.90;99.90
21039;DHT22;10678;51.002;4.786;2024-03-17T00:32:53;9.00;99.90
21039;DHT22;10678;51.002;4.786;2024-03-17T00:35:18;9.10;99.90
21039;DHT22;10678;51.002;4.786;2024-03-17T00:37:48;9.10;99.90
21039;DHT22;10678;51.002;4.786;2024-03-17T00:40:15;9.20;99.90
21039;DHT22;10678;51.002;4.786;2024-03-17T00:42:42;9.30;99.90
21039;DHT22;10678;51.002;4.786;2024-03-17T00:45:08;9.30;99.90
21039;DHT22;10678;51.002;4.786;2024-03-17T00:47:35;9.30;99.90
21039;DHT22;10678;51.002;4.786;2024-03-17T00:50:01;9.10;99.90
21039;DHT22;10678;51.002;4.786;2024-03-17T00:52:27;9.00;99.90
21039;DHT22;10678;51.002;4.786;2024-03-17T00:54:53;9.00;99.90
21039;DHT22;10678;51.002;4.786;2024-03-17T00:57:19;8.90;99.90
21039;DHT22;10678;51.002;4.786;2024-03-17T00:59:45;8.80;99.90
21039;DHT22;10678;51.002;4.786;2024-03-17T01:02:15;8.80;99.90
21039;DHT22;10678;51.002;4.786;2024-03-17T01:04:44;8.70;99.90
21039;DHT22;10678;51.002;4.786;2024-03-17T01:07:10;8.70;99.90
21039;DHT22;10678;51.002;4.786;2024-03-17T01:09:36;8.70;99.90
21039;DHT22;10678;51.002;4.786;2024-03-17T01:12:02;8.60;99.90
21039;DHT22;10678;51.002;4.786;2024-03-17T01:14:29;8.60;99.90
21039;DHT22;10678;51.002;4.786;2024-03-17T01:16:55;8.60;99.90
21039;DHT22;10678;51.002;4.786;2024-03-17T01:19:21;8.60;99.90
21039;DHT22;10678;51.002;4.786;2024-03-17T01:21:47;8.50;99.90
21039;DHT22;10678;51.002;4.786;2024-03-17T01:24:12;8.60;99.90
21039;DHT22;10678;51.002;4.786;2024-03-17T01:26:38;8.50;99.90
21039;DHT22;10678;51.002;4.786;2024-03-17T01:29:04;8.50;99.90
21039;DHT22;10678;51.002;4.786;2024-03-17T01:31:30;8.50;99.90
21039;DHT22;10678;51.002;4.786;2024-03-17T01:33:56;8.60;99.90
21039;DHT22;10678;51.002;4.786;2024-03-17T01:36:21;8.60;99.90
21039;DHT22;10678;51.002;4.786;2024-03-17T01:38:47;8.60;99.90
21039;DHT22;10678;51.002;4.786;2024-03-17T01:41:13;8.70;99.90
21039;DHT22;10678;51.002;4.786;2024-03-17T01:43:39;8.80;99.90
21039;DHT22;10678;51.002;4.786;2024-03-17T01:46:06;8.80;99.90
21039;DHT22;10678;51.002;4.786;2024-03-17T01:48:36;8.80;99.90
21039;DHT22;10678;51.002;4.786;2024-03-17T01:51:02;8.70;99.90
21039;DHT22;10678;51.002;4.786;2024-03-17T01:53:28;8.70;99.90
21039;DHT22;10678;51.002;4.786;2024-03-17T01:55:57;8.70;99.90
21039;DHT22;10678;51.002;4.786;2024-03-17T01:58:27;8.70;99.90
21039;DHT22;10678;51.002;4.786;2024-03-17T02:00:57;8.70;99.90
21039;DHT22;10678;51.002;4.786;2024-03-17T02:03:22;8.70;99.90
21039;DHT22;10678;51.002;4.786;2024-03-17T02:05:48;8.70;99.90
21039;DHT22;10678;51.002;4.786;2024-03-17T02:08:14;8.60;99.90
21039;DHT22;10678;51.002;4.786;2024-03-17T02:10:40;8.60;99.90
21039;DHT22;10678;51.002;4.786;2024-03-17T02:13:06;8.60;99.90
21039;DHT22;10678;51.002;4.786;2024-03-17T02:15:32;8.60;99.90
21039;DHT22;10678;51.002;4.786;2024-03-17T02:17:58;8.80;99.90
21039;DHT22;10678;51.002;4.786;2024-03-17T02:20:24;8.80;99.90
21039;DHT22;10678;51.002;4.786;2024-03-17T02:23:10;8.80;99.90
21039;DHT22;10678;51.002;4.786;2024-03-17T02:25:36;8.80;99.90
21039;DHT22;10678;51.002;4.786;2024-03-17T02:28:02;8.80;99.90
21039;DHT22;10678;51.002;4.786;2024-03-17T02:30:28;8.80;99.90
21039;DHT22;10678;51.002;4.786;2024-03-17T02:32:54;8.90;99.90
21039;DHT22;10678;51.002;4.786;2024-03-17T02:35:24;8.80;99.90
21039;DHT22;10678;51.002;4.786;2024-03-17T02:37:50;8.90;99.90
21039;DHT22;10678;51.002;4.786;2024-03-17T02:40:15;8.90;99.90
21039;DHT22;10678;51.002;4.786;2024-03-17T02:42:42;9.00;99.90
21039;DHT22;10678;51.002;4.786;2024-03-17T02:45:17;8.90;99.90
21039;DHT22;10678;51.002;4.786;2024-03-17T02:47:42;9.00;99.90
21039;DHT22;10678;51.002;4.786;2024-03-17T02:50:08;8.90;99.90
21039;DHT22;10678;51.002;4.786;2024-03-17T02:52:36;8.90;99.90
21039;DHT22;10678;51.002;4.786;2024-03-17T02:55:02;9.00;99.90
21039;DHT22;10678;51.002;4.786;2024-03-17T02:57:28;8.80;99.90
21039;DHT22;10678;51.002;4.786;2024-03-17T03:00:00;8.80;99.90
21039;DHT22;10678;51.002;4.786;2024-03-17T03:02:29;8.70;99.90
21039;DHT22;10678;51.002;4.786;2024-03-17T03:04:54;8.80;99.90
21039;DHT22;10678;51.002;4.786;2024-03-17T03:07:20;9.00;99.90
21039;DHT22;10678;51.002;4.786;2024-03-17T03:09:46;8.90;99.90
21039;DHT22;10678;51.002;4.786;2024-03-17T03:12:12;9.00;99.90
21039;DHT22;10678;51.002;4.786;2024-03-17T03:14:38;8.90;99.90
21039;DHT22;10678;51.002;4.786;2024-03-17T03:17:03;8.90;99.90
21039;DHT22;10678;51.002;4.786;2024-03-17T03:19:29;8.90;99.90
21039;DHT22;10678;51.002;4.786;2024-03-17T03:21:55;9.00;99.90
21039;DHT22;10678;51.002;4.786;2024-03-17T03:24:21;9.00;99.90
21039;DHT22;10678;51.002;4.786;2024-03-17T03:26:47;9.10;99.90
21039;DHT22;10678;51.002;4.786;2024-03-17T03:29:14;9.10;99.90
21039;DHT22;10678;51.002;4.786;2024-03-17T03:31:40;9.10;99.90
21039;DHT22;10678;51.002;4.786;2024-03-17T03:34:06;9.00;99.90
21039;DHT22;10678;51.002;4.786;2024-03-17T03:36:38;8.90;99.90
21039;DHT22;10678;51.002;4.786;2024-03-17T03:39:04;9.00;99.90
21039;DHT22;10678;51.002;4.786;2024-03-17T03:41:30;9.00;99.90
21039;DHT22;10678;51.002;4.786;2024-03-17T03:43:57;9.10;99.90
21039;DHT22;10678;51.002;4.786;2024-03-17T03:46:22;9.10;99.90
21039;DHT22;10678;51.002;4.786;2024-03-17T03:48:48;9.10;99.90
21039;DHT22;10678;51.002;4.786;2024-03-17T03:51:14;9.10;99.90
21039;DHT22;10678;51.002;4.786;2024-03-17T03:53:39;9.20;99.90
21039;DHT22;10678;51.002;4.786;2024-03-17T03:56:06;9.10;99.90
21039;DHT22;10678;51.002;4.786;2024-03-17T03:58:35;9.00;99.90
21039;DHT22;10678;51.002;4.786;2024-03-17T04:01:06;8.90;99.90
21039;DHT22;10678;51.002;4.786;2024-03-17T04:03:35;8.90;99.90
21039;DHT22;10678;51.002;4.786;2024-03-17T04:06:05;9.00;99.90
21039;DHT22;10678;51.002;4.786;2024-03-17T04:08:35;9.00;99.90
21039;DHT22;10678;51.002;4.786;2024-03-17T04:11:01;9.00;99.90
21039;DHT22;10678;51.002;4.786;2024-03-17T04:13:28;9.00;99.90
21039;DHT22;10678;51.002;4.786;2024-03-17T04:15:58;9.00;99.90
21039;DHT22;10678;51.002;4.786;2024-03-17T04:18:25;9.00;99.90
21039;DHT22;10678;51.002;4.786;2024-03-17T04:20:52;9.00;99.90
21039;DHT22;10678;51.002;4.786;2024-03-17T04:23:19;9.00;99.90
21039;DHT22;10678;51.002;4.786;2024-03-17T04:25:45;9.00;99.90
21039;DHT22;10678;51.002;4.786;2024-03-17T04:28:11;9.00;99.90
21039;DHT22;10678;51.002;4.786;2024-03-17T04:30:36;8.90;99.90
21039;DHT22;10678;51.002;4.786;2024-03-17T04:33:02;8.80;99.90
21039;DHT22;10678;51.002;4.786;2024-03-17T04:35:29;8.70;99.90
21039;DHT22;10678;51.002;4.786;2024-03-17T04:37:54;8.70;99.90
21039;DHT22;10678;51.002;4.786;2024-03-17T04:40:22;8.70;99.90
21039;DHT22;10678;51.002;4.786;2024-03-17T04:42:48;8.60;99.90
21039;DHT22;10678;51.002;4.786;2024-03-17T04:45:14;8.60;99.90
21039;DHT22;10678;51.002;4.786;2024-03-17T04:47:40;8.60;99.90
21039;DHT22;10678;51.002;4.786;2024-03-17T04:50:05;8.50;99.90
21039;DHT22;10678;51.002;4.786;2024-03-17T04:52:31;8.50;99.90
21039;DHT22;10678;51.002;4.786;2024-03-17T04:54:57;8.50;99.90
21039;DHT22;10678;51.002;4.786;2024-03-17T04:57:22;8.40;99.90
21039;DHT22;10678;51.002;4.786;2024-03-17T04:59:48;8.20;99.90
21039;DHT22;10678;51.002;4.786;2024-03-17T05:02:14;8.10;99.90
21039;DHT22;10678;51.002;4.786;2024-03-17T05:04:39;8.10;99.90
21039;DHT22;10678;51.002;4.786;2024-03-17T05:07:05;8.10;99.90
21039;DHT22;10678;51.002;4.786;2024-03-17T05:09:30;8.00;99.90
21039;DHT22;10678;51.002;4.786;2024-03-17T05:11:56;8.00;99.90
21039;DHT22;10678;51.002;4.786;2024-03-17T05:14:22;8.00;99.90
21039;DHT22;10678;51.002;4.786;2024-03-17T05:16:51;8.00;99.90
21039;DHT22;10678;51.002;4.786;2024-03-17T05:19:17;7.80;99.90
21039;DHT22;10678;51.002;4.786;2024-03-17T05:21:43;7.80;99.90
21039;DHT22;10678;51.002;4.786;2024-03-17T05:24:10;7.70;99.90
21039;DHT22;10678;51.002;4.786;2024-03-17T05:26:37;7.60;99.90
21039;DHT22;10678;51.002;4.786;2024-03-17T05:29:02;7.70;99.90
21039;DHT22;10678;51.002;4.786;2024-03-17T05:31:29;7.60;99.90
21039;DHT22;10678;51.002;4.786;2024-03-17T05:33:57;7.60;99.90
21039;DHT22;10678;51.002;4.786;2024-03-17T05:36:22;7.80;99.90
21039;DHT22;10678;51.002;4.786;2024-03-17T05:38:48;7.70;99.90
21039;DHT22;10678;51.002;4.786;2024-03-17T05:41:14;7.70;99.90
21039;DHT22;10678;51.002;4.786;2024-03-17T05:43:39;7.60;99.90
21039;DHT22;10678;51.002;4.786;2024-03-17T05:46:10;7.60;99.90
21039;DHT22;10678;51.002;4.786;2024-03-17T05:48:41;7.70;99.90
21039;DHT22;10678;51.002;4.786;2024-03-17T05:51:07;7.90;99.90
21039;DHT22;10678;51.002;4.786;2024-03-17T05:53:34;7.80;99.90
21039;DHT22;10678;51.002;4.786;2024-03-17T05:56:00;7.90;99.90
21039;DHT22;10678;51.002;4.786;2024-03-17T05:58:26;8.00;99.90
21039;DHT22;10678;51.002;4.786;2024-03-17T06:00:52;8.10;99.90
21039;DHT22;10678;51.002;4.786;2024-03-17T06:03:18;8.20;99.90
21039;DHT22;10678;51.002;4.786;2024-03-17T06:05:44;8.30;99.90
21039;DHT22;10678;51.002;4.786;2024-03-17T06:08:12;8.50;99.90
21039;DHT22;10678;51.002;4.786;2024-03-17T06:10:43;8.70;99.90
21039;DHT22;10678;51.002;4.786;2024-03-17T06:13:09;8.80;99.90
21039;DHT22;10678;51.002;4.786;2024-03-17T06:15:39;8.90;99.90
21039;DHT22;10678;51.002;4.786;2024-03-17T06:18:05;9.10;99.90
21039;DHT22;10678;51.002;4.786;2024-03-17T06:20:34;9.20;99.90
21039;DHT22;10678;51.002;4.786;2024-03-17T06:23:00;9.10;99.90
21039;DHT22;10678;51.002;4.786;2024-03-17T06:25:26;9.20;99.90
21039;DHT22;10678;51.002;4.786;2024-03-17T06:27:53;9.20;99.90
21039;DHT22;10678;51.002;4.786;2024-03-17T06:30:19;9.20;99.90
21039;DHT22;10678;51.002;4.786;2024-03-17T06:32:46;9.20;99.90
21039;DHT22;10678;51.002;4.786;2024-03-17T06:35:12;9.30;99.90
21039;DHT22;10678;51.002;4.786;2024-03-17T06:37:41;9.30;99.90
21039;DHT22;10678;51.002;4.786;2024-03-17T06:40:08;9.20;99.90
21039;DHT22;10678;51.002;4.786;2024-03-17T06:42:37;9.40;99.90
21039;DHT22;10678;51.002;4.786;2024-03-17T06:45:03;9.40;99.90
21039;DHT22;10678;51.002;4.786;2024-03-17T06:47:29;9.50;99.90
21039;DHT22;10678;51.002;4.786;2024-03-17T06:49:55;9.50;99.90
21039;DHT22;10678;51.002;4.786;2024-03-17T06:52:21;9.70;99.90
21039;DHT22;10678;51.002;4.786;2024-03-17T06:54:47;9.90;99.90
21039;DHT22;10678;51.002;4.786;2024-03-17T06:57:15;10.10;99.90
21039;DHT22;10678;51.002;4.786;2024-03-17T06:59:41;10.20;99.90
21039;DHT22;10678;51.002;4.786;2024-03-17T07:02:07;10.30;99.90
21039;DHT22;10678;51.002;4.786;2024-03-17T07:04:35;10.40;99.90
21039;DHT22;10678;51.002;4.786;2024-03-17T07:07:01;10.50;99.90
21039;DHT22;10678;51.002;4.786;2024-03-17T07:09:26;10.70;99.90
21039;DHT22;10678;51.002;4.786;2024-03-17T07:11:52;10.80;99.90
21039;DHT22;10678;51.002;4.786;2024-03-17T07:14:18;10.90;99.90
21039;DHT22;10678;51.002;4.786;2024-03-17T07:16:44;10.90;99.90
21039;DHT22;10678;51.002;4.786;2024-03-17T07:19:10;11.00;99.90
21039;DHT22;10678;51.002;4.786;2024-03-17T07:21:35;10.90;99.90
21039;DHT22;10678;51.002;4.786;2024-03-17T07:24:01;11.10;99.90
21039;DHT22;10678;51.002;4.786;2024-03-17T07:26:30;11.10;99.90
21039;DHT22;10678;51.002;4.786;2024-03-17T07:28:56;11.30;99.90
21039;DHT22;10678;51.002;4.786;2024-03-17T07:31:22;11.40;99.90
21039;DHT22;10678;51.002;4.786;2024-03-17T07:33:47;11.40;99.90
21039;DHT22;10678;51.002;4.786;2024-03-17T07:36:14;11.50;99.90
21039;DHT22;10678;51.002;4.786;2024-03-17T07:38:40;11.70;99.90
21039;DHT22;10678;51.002;4.786;2024-03-17T07:41:07;11.80;99.90
21039;DHT22;10678;51.002;4.786;2024-03-17T07:43:37;11.70;99.90
21039;DHT22;10678;51.002;4.786;2024-03-17T07:46:10;11.60;99.90
21039;DHT22;10678;51.002;4.786;2024-03-17T07:48:40;11.60;99.90
21039;DHT22;10678;51.002;4.786;2024-03-17T07:51:14;11.80;99.90
21039;DHT22;10678;51.002;4.786;2024-03-17T07:53:41;11.80;99.90
21039;DHT22;10678;51.002;4.786;2024-03-17T07:56:11;11.70;99.90
21039;DHT22;10678;51.002;4.786;2024-03-17T07:58:41;11.80;99.90
21039;DHT22;10678;51.002;4.786;2024-03-17T08:01:09;11.90;99.90
21039;DHT22;10678;51.002;4.786;2024-03-17T08:03:37;11.90;99.90
21039;DHT22;10678;51.002;4.786;2024-03-17T08:06:04;11.90;99.90
21039;DHT22;10678;51.002;4.786;2024-03-17T08:08:31;11.90;99.90
21039;DHT22;10678;51.002;4.786;2024-03-17T08:10:57;12.00;99.90
21039;DHT22;10678;51.002;4.786;2024-03-17T08:13:23;12.00;99.90
21039;DHT22;10678;51.002;4.786;2024-03-17T08:15:59;12.10;99.90
21039;DHT22;10678;51.002;4.786;2024-03-17T08:18:25;12.20;99.90
21039;DHT22;10678;51.002;4.786;2024-03-17T08:20:53;12.50;99.90
21039;DHT22;10678;51.002;4.786;2024-03-17T08:23:24;12.70;99.90
21039;DHT22;10678;51.002;4.786;2024-03-17T08:25:54;12.80;99.90
21039;DHT22;10678;51.002;4.786;2024-03-17T08:28:20;13.00;99.90
21039;DHT22;10678;51.002;4.786;2024-03-17T08:30:53;13.00;99.90
21039;DHT22;10678;51.002;4.786;2024-03-17T08:33:20;13.30;99.90
21039;DHT22;10678;51.002;4.786;2024-03-17T08:38:19;14.30;99.90
21039;DHT22;10678;51.002;4.786;2024-03-17T08:40:46;15.20;99.90
21039;DHT22;10678;51.002;4.786;2024-03-17T08:43:12;16.10;99.90
21039;DHT22;10678;51.002;4.786;2024-03-17T08:45:37;17.00;99.90
21039;DHT22;10678;51.002;4.786;2024-03-17T08:48:03;17.10;99.90
21039;DHT22;10678;51.002;4.786;2024-03-17T08:50:29;16.90;99.90
21039;DHT22;10678;51.002;4.786;2024-03-17T08:52:58;17.00;99.90
21039;DHT22;10678;51.002;4.786;2024-03-17T08:55:24;17.50;99.90
21039;DHT22;10678;51.002;4.786;2024-03-17T08:57:49;18.30;99.90
21039;DHT22;10678;51.002;4.786;2024-03-17T09:00:15;19.00;99.90
21039;DHT22;10678;51.002;4.786;2024-03-17T09:02:41;19.40;99.90
21039;DHT22;10678;51.002;4.786;2024-03-17T09:05:07;19.70;99.90
21039;DHT22;10678;51.002;4.786;2024-03-17T09:07:32;19.60;99.90
21039;DHT22;10678;51.002;4.786;2024-03-17T09:09:59;19.20;99.90
21039;DHT22;10678;51.002;4.786;2024-03-17T09:12:25;18.80;99.90
21039;DHT22;10678;51.002;4.786;2024-03-17T09:14:51;18.30;99.90
21039;DHT22;10678;51.002;4.786;2024-03-17T09:17:16;17.80;99.90
21039;DHT22;10678;51.002;4.786;2024-03-17T09:19:45;17.30;99.90
21039;DHT22;10678;51.002;4.786;2024-03-17T09:22:10;17.10;99.90
21039;DHT22;10678;51.002;4.786;2024-03-17T09:24:36;16.90;99.90
21039;DHT22;10678;51.002;4.786;2024-03-17T09:27:02;16.90;99.90
21039;DHT22;10678;51.002;4.786;2024-03-17T09:29:29;16.90;99.90
21039;DHT22;10678;51.002;4.786;2024-03-17T09:31:55;16.60;99.90
21039;DHT22;10678;51.002;4.786;2024-03-17T09:34:20;16.80;99.90
21039;DHT22;10678;51.002;4.786;2024-03-17T09:36:46;17.00;99.90
21039;DHT22;10678;51.002;4.786;2024-03-17T09:39:12;17.10;99.90
21039;DHT22;10678;51.002;4.786;2024-03-17T09:41:39;17.00;99.90
21039;DHT22;10678;51.002;4.786;2024-03-17T09:44:06;17.20;99.90
21039;DHT22;10678;51.002;4.786;2024-03-17T09:46:35;17.10;99.90
21039;DHT22;10678;51.002;4.786;2024-03-17T09:49:01;17.10;99.90
21039;DHT22;10678;51.002;4.786;2024-03-17T09:51:27;17.00;99.90
21039;DHT22;10678;51.002;4.786;2024-03-17T09:53:53;17.00;99.90
21039;DHT22;10678;51.002;4.786;2024-03-17T09:56:20;17.00;99.90
21039;DHT22;10678;51.002;4.786;2024-03-17T09:58:50;16.80;99.90
21039;DHT22;10678;51.002;4.786;2024-03-17T10:01:16;16.70;99.90
21039;DHT22;10678;51.002;4.786;2024-03-17T10:06:14;16.80;99.90
21039;DHT22;10678;51.002;4.786;2024-03-17T10:08:54;16.60;99.90
21039;DHT22;10678;51.002;4.786;2024-03-17T10:11:21;16.60;99.90
21039;DHT22;10678;51.002;4.786;2024-03-17T10:14:02;16.50;99.90
21039;DHT22;10678;51.002;4.786;2024-03-17T10:16:30;16.40;99.90
21039;DHT22;10678;51.002;4.786;2024-03-17T10:21:38;16.30;99.90
21039;DHT22;10678;51.002;4.786;2024-03-17T10:31:44;15.70;99.90
21039;DHT22;10678;51.002;4.786;2024-03-17T10:34:15;15.60;99.90
21039;DHT22;10678;51.002;4.786;2024-03-17T10:36:47;15.50;99.90
21039;DHT22;10678;51.002;4.786;2024-03-17T10:39:24;15.50;99.90
21039;DHT22;10678;51.002;4.786;2024-03-17T10:42:03;15.50;99.90
21039;DHT22;10678;51.002;4.786;2024-03-17T10:44:39;15.60;99.90
21039;DHT22;10678;51.002;4.786;2024-03-17T10:47:08;16.20;99.90
21039;DHT22;10678;51.002;4.786;2024-03-17T10:49:42;16.40;99.90
21039;DHT22;10678;51.002;4.786;2024-03-17T10:52:16;17.00;99.90
21039;DHT22;10678;51.002;4.786;2024-03-17T10:54:51;17.30;99.90
21039;DHT22;10678;51.002;4.786;2024-03-17T10:59:59;17.00;99.90
21039;DHT22;10678;51.002;4.786;2024-03-17T11:02:26;17.10;99.90
21039;DHT22;10678;51.002;4.786;2024-03-17T11:05:03;17.20;99.90
21039;DHT22;10678;51.002;4.786;2024-03-17T11:07:29;17.00;99.90
21039;DHT22;10678;51.002;4.786;2024-03-17T11:09:59;16.90;99.90
21039;DHT22;10678;51.002;4.786;2024-03-17T11:20:40;16.90;99.90
21039;DHT22;10678;51.002;4.786;2024-03-17T11:23:06;16.90;99.90
21039;DHT22;10678;51.002;4.786;2024-03-17T11:28:05;16.80;99.90
21039;DHT22;10678;51.002;4.786;2024-03-17T11:38:58;16.90;99.90
21039;DHT22;10678;51.002;4.786;2024-03-17T11:41:42;16.90;99.90
21039;DHT22;10678;51.002;4.786;2024-03-17T11:44:26;17.10;99.90
21039;DHT22;10678;51.002;4.786;2024-03-17T11:52:02;17.40;99.90
21039;DHT22;10678;51.002;4.786;2024-03-17T11:54:35;17.40;99.90
21039;DHT22;10678;51.002;4.786;2024-03-17T11:57:11;17.50;99.90
21039;DHT22;10678;51.002;4.786;2024-03-17T11:59:38;17.60;99.90
21039;DHT22;10678;51.002;4.786;2024-03-17T12:04:43;17.60;99.90
21039;DHT22;10678;51.002;4.786;2024-03-17T12:07:15;17.40;99.90
21039;DHT22;10678;51.002;4.786;2024-03-17T12:09:42;17.50;99.90
21039;DHT22;10678;51.002;4.786;2024-03-17T12:12:11;17.40;99.90
21039;DHT22;10678;51.002;4.786;2024-03-17T12:14:39;17.50;99.90
21039;DHT22;10678;51.002;4.786;2024-03-17T12:17:10;17.70;99.90
21039;DHT22;10678;51.002;4.786;2024-03-17T12:19:36;17.90;99.90
21039;DHT22;10678;51.002;4.786;2024-03-17T12:22:04;18.30;99.90
21039;DHT22;10678;51.002;4.786;2024-03-17T12:24:32;18.60;99.90
21039;DHT22;10678;51.002;4.786;2024-03-17T12:26:59;19.00;99.90
21039;DHT22;10678;51.002;4.786;2024-03-17T12:31:56;19.70;99.90
21039;DHT22;10678;51.002;4.786;2024-03-17T12:34:25;21.70;99.90
21039;DHT22;10678;51.002;4.786;2024-03-17T12:36:53;23.40;99.90
21039;DHT22;10678;51.002;4.786;2024-03-17T12:39:21;25.10;99.90
21039;DHT22;10678;51.002;4.786;2024-03-17T12:44:37;28.40;99.60
21039;DHT22;10678;51.002;4.786;2024-03-17T12:47:05;29.70;96.20
21039;DHT22;10678;51.002;4.786;2024-03-17T12:49:34;28.80;93.10
21039;DHT22;10678;51.002;4.786;2024-03-17T12:52:01;26.60;96.20
21039;DHT22;10678;51.002;4.786;2024-03-17T12:54:27;25.40;99.90
21039;DHT22;10678;51.002;4.786;2024-03-17T12:57:07;24.70;99.90
21039;DHT22;10678;51.002;4.786;2024-03-17T12:59:52;24.00;99.90
21039;DHT22;10678;51.002;4.786;2024-03-17T13:02:43;22.90;99.90
21039;DHT22;10678;51.002;4.786;2024-03-17T13:05:19;22.00;99.90
21039;DHT22;10678;51.002;4.786;2024-03-17T13:07:46;21.60;99.90
21039;DHT22;10678;51.002;4.786;2024-03-17T13:10:19;20.90;99.90
21039;DHT22;10678;51.002;4.786;2024-03-17T13:12:45;20.70;99.90
21039;DHT22;10678;51.002;4.786;2024-03-17T13:15:16;20.50;99.90
21039;DHT22;10678;51.002;4.786;2024-03-17T13:17:43;20.70;99.90
21039;DHT22;10678;51.002;4.786;2024-03-17T13:20:14;20.90;99.90
21039;DHT22;10678;51.002;4.786;2024-03-17T13:22:44;20.60;99.90
21039;DHT22;10678;51.002;4.786;2024-03-17T13:25:17;21.00;99.90
21039;DHT22;10678;51.002;4.786;2024-03-17T13:27:46;20.80;99.90
21039;DHT22;10678;51.002;4.786;2024-03-17T13:30:13;20.60;99.90
21039;DHT22;10678;51.002;4.786;2024-03-17T13:32:39;20.20;99.90
21039;DHT22;10678;51.002;4.786;2024-03-17T13:35:06;19.90;99.90
21039;DHT22;10678;51.002;4.786;2024-03-17T13:37:34;19.80;99.90
21039;DHT22;10678;51.002;4.786;2024-03-17T13:39:59;19.80;99.90
21039;DHT22;10678;51.002;4.786;2024-03-17T13:42:28;19.70;99.90
21039;DHT22;10678;51.002;4.786;2024-03-17T13:44:53;19.30;99.90
21039;DHT22;10678;51.002;4.786;2024-03-17T13:47:19;19.30;99.90
21039;DHT22;10678;51.002;4.786;2024-03-17T13:49:44;19.20;99.90
21039;DHT22;10678;51.002;4.786;2024-03-17T13:52:12;19.10;99.90
21039;DHT22;10678;51.002;4.786;2024-03-17T13:54:38;19.00;99.90
21039;DHT22;10678;51.002;4.786;2024-03-17T13:57:03;18.80;99.90
21039;DHT22;10678;51.002;4.786;2024-03-17T13:59:30;18.70;99.90
21039;DHT22;10678;51.002;4.786;2024-03-17T14:01:57;18.30;99.90
21039;DHT22;10678;51.002;4.786;2024-03-17T14:04:23;18.50;99.90
21039;DHT22;10678;51.002;4.786;2024-03-17T14:06:48;18.60;99.90
21039;DHT22;10678;51.002;4.786;2024-03-17T14:09:16;18.60;99.90
21039;DHT22;10678;51.002;4.786;2024-03-17T14:11:44;18.60;99.90
21039;DHT22;10678;51.002;4.786;2024-03-17T14:14:14;18.60;99.90
21039;DHT22;10678;51.002;4.786;2024-03-17T14:16:40;18.40;99.90
21039;DHT22;10678;51.002;4.786;2024-03-17T14:19:09;18.60;99.90
21039;DHT22;10678;51.002;4.786;2024-03-17T14:21:35;18.40;99.90
21039;DHT22;10678;51.002;4.786;2024-03-17T14:24:01;18.00;99.90
21039;DHT22;10678;51.002;4.786;2024-03-17T14:26:31;17.70;99.90
21039;DHT22;10678;51.002;4.786;2024-03-17T14:28:57;17.80;99.90
21039;DHT22;10678;51.002;4.786;2024-03-17T14:31:25;17.80;99.90
21039;DHT22;10678;51.002;4.786;2024-03-17T14:33:51;17.70;99.90
21039;DHT22;10678;51.002;4.786;2024-03-17T14:36:17;17.80;99.90
21039;DHT22;10678;51.002;4.786;2024-03-17T14:38:43;17.80;99.90
21039;DHT22;10678;51.002;4.786;2024-03-17T14:41:09;17.80;99.90
21039;DHT22;10678;51.002;4.786;2024-03-17T14:43:36;17.90;99.90
21039;DHT22;10678;51.002;4.786;2024-03-17T14:46:04;18.00;99.90
21039;DHT22;10678;51.002;4.786;2024-03-17T14:48:30;17.80;99.90
21039;DHT22;10678;51.002;4.786;2024-03-17T14:50:56;17.90;99.90
21039;DHT22;10678;51.002;4.786;2024-03-17T14:53:21;18.00;99.90
21039;DHT22;10678;51.002;4.786;2024-03-17T14:55:47;17.90;99.90
21039;DHT22;10678;51.002;4.786;2024-03-17T14:58:13;17.80;99.90
21039;DHT22;10678;51.002;4.786;2024-03-17T15:00:38;17.80;99.90
21039;DHT22;10678;51.002;4.786;2024-03-17T15:03:04;17.70;99.90
21039;DHT22;10678;51.002;4.786;2024-03-17T15:05:33;17.40;99.90
21039;DHT22;10678;51.002;4.786;2024-03-17T15:07:58;17.30;99.90
21039;DHT22;10678;51.002;4.786;2024-03-17T15:10:24;17.20;99.90
21039;DHT22;10678;51.002;4.786;2024-03-17T15:12:51;17.20;99.90
21039;DHT22;10678;51.002;4.786;2024-03-17T15:15:16;17.20;99.90
21039;DHT22;10678;51.002;4.786;2024-03-17T15:17:42;17.00;99.90
21039;DHT22;10678;51.002;4.786;2024-03-17T15:20:10;17.00;99.90
21039;DHT22;10678;51.002;4.786;2024-03-17T15:22:51;17.20;99.90
21039;DHT22;10678;51.002;4.786;2024-03-17T15:25:17;17.30;99.90
21039;DHT22;10678;51.002;4.786;2024-03-17T15:27:44;17.40;99.90
21039;DHT22;10678;51.002;4.786;2024-03-17T15:30:16;17.60;99.90
21039;DHT22;10678;51.002;4.786;2024-03-17T15:32:46;17.50;99.90
21039;DHT22;10678;51.002;4.786;2024-03-17T15:35:12;17.50;99.90
21039;DHT22;10678;51.002;4.786;2024-03-17T15:37:39;17.60;99.90
21039;DHT22;10678;51.002;4.786;2024-03-17T15:40:06;17.70;99.90
21039;DHT22;10678;51.002;4.786;2024-03-17T15:42:32;17.50;99.90
21039;DHT22;10678;51.002;4.786;2024-03-17T15:44:58;17.50;99.90
21039;DHT22;10678;51.002;4.786;2024-03-17T15:47:24;17.50;99.90
21039;DHT22;10678;51.002;4.786;2024-03-17T15:49:50;17.40;99.90
21039;DHT22;10678;51.002;4.786;2024-03-17T15:52:16;17.50;99.90
21039;DHT22;10678;51.002;4.786;2024-03-17T15:54:41;17.30;99.90
21039;DHT22;10678;51.002;4.786;2024-03-17T15:57:07;17.30;99.90
21039;DHT22;10678;51.002;4.786;2024-03-17T15:59:33;17.30;99.90
21039;DHT22;10678;51.002;4.786;2024-03-17T16:02:00;17.30;99.90
21039;DHT22;10678;51.002;4.786;2024-03-17T16:04:26;17.30;99.90
21039;DHT22;10678;51.002;4.786;2024-03-17T16:06:53;17.20;99.90
21039;DHT22;10678;51.002;4.786;2024-03-17T16:09:20;17.30;99.90
21039;DHT22;10678;51.002;4.786;2024-03-17T16:11:46;17.10;99.90
21039;DHT22;10678;51.002;4.786;2024-03-17T16:14:13;17.00;99.90
21039;DHT22;10678;51.002;4.786;2024-03-17T16:16:40;16.80;99.90
21039;DHT22;10678;51.002;4.786;2024-03-17T16:19:07;16.60;99.90
21039;DHT22;10678;51.002;4.786;2024-03-17T16:21:33;16.50;99.90
21039;DHT22;10678;51.002;4.786;2024-03-17T16:24:18;16.40;99.90
21039;DHT22;10678;51.002;4.786;2024-03-17T16:26:43;16.30;99.90
21039;DHT22;10678;51.002;4.786;2024-03-17T16:29:11;16.20;99.90